Derby, Vermont
Current Conditions -  °F | °C
As of 2:49 PM on Tuesday 21 Oct 2014 (Local Time) from KMVL Reporting Station
Light Rain Light Rain  
Wind Chill: 48°   Ceiling: 1600
Heat Index: 48°   Visibility: 4mi
Dew Point: 45°   Wind: 3mph
Humidity: 87%   Direction: 360°N
Pressure: 30.01"   Gusts: NA
Location:  44.96°N, 72.13°W
Report Text: KMVL 211849Z AUTO 36003KT 4SM -RA BR FEW006 BKN016 OVC038 09/07 A3001 RMK AO2 P0004
Loading
Personal Weather Stations






























Interactive Weather Map
Tropical Storm Tracking
New forecast layout! Learn more

10-Day Weather Forecast

Advertisements
Track Severe Weather on mobile